createdAt,value
2023-02-15T00:00:39.343Z,1.71
2023-02-15T00:05:40.875Z,1.67
2023-02-15T00:10:42.363Z,1.65
2023-02-15T00:15:43.823Z,1.62
2023-02-15T00:20:45.280Z,1.59
2023-02-15T00:25:47.177Z,1.47
2023-02-15T00:30:48.785Z,1.46
2023-02-15T00:35:57.309Z,1.45
2023-02-15T00:41:01.312Z,1.40
2023-02-15T00:46:05.099Z,1.33
2023-02-15T00:51:06.754Z,1.27
2023-02-15T00:56:08.273Z,1.33
2023-02-15T01:01:16.163Z,1.25
2023-02-15T01:06:18.136Z,1.22
2023-02-15T01:11:25.528Z,1.26
2023-02-15T01:16:28.970Z,1.32
2023-02-15T01:21:30.605Z,1.33
2023-02-15T01:26:32.093Z,1.26
2023-02-15T01:31:33.592Z,1.21
2023-02-15T01:36:35.305Z,1.11
2023-02-15T01:41:37.079Z,1.13
2023-02-15T01:46:44.216Z,1.02
2023-02-15T01:51:49.720Z,0.84
2023-02-15T01:56:51.724Z,0.86
2023-02-15T02:01:58.668Z,0.87
2023-02-15T02:07:01.070Z,0.75
2023-02-15T02:12:02.920Z,0.72
2023-02-15T02:17:27.831Z,0.72
2023-02-15T02:22:47.853Z,0.79
2023-02-15T02:27:57.350Z,0.82
2023-02-15T02:33:17.076Z,0.79
2023-02-15T02:38:29.526Z,0.76
2023-02-15T02:43:39.313Z,0.81
2023-02-15T02:48:41.148Z,0.87
2023-02-15T02:53:42.711Z,0.86
2023-02-15T02:58:51.671Z,0.79
2023-02-15T03:04:02.223Z,0.76
2023-02-15T03:09:15.253Z,0.86
2023-02-15T03:14:19.170Z,0.96
2023-02-15T03:19:28.335Z,0.93
2023-02-15T03:24:36.718Z,0.97
2023-02-15T03:29:38.474Z,1.32
2023-02-15T03:34:40.062Z,1.51
2023-02-15T03:39:57.498Z,1.51
2023-02-15T03:45:25.359Z,1.42
2023-02-15T03:50:55.576Z,1.41
2023-02-15T03:55:57.324Z,1.46
2023-02-15T04:01:20.282Z,1.50
2023-02-15T04:06:21.818Z,1.44
2023-02-15T04:11:23.294Z,1.45
2023-02-15T04:16:25.486Z,1.53
2023-02-15T04:21:47.499Z,1.66
2023-02-15T04:26:49.066Z,1.70
2023-02-15T04:31:51.737Z,1.84
2023-02-15T04:36:53.327Z,2.01
2023-02-15T04:41:54.893Z,2.01
2023-02-15T04:46:56.393Z,1.93
2023-02-15T04:51:57.906Z,1.94
2023-02-15T04:56:59.375Z,1.97
2023-02-15T05:02:00.962Z,1.95
2023-02-15T05:07:02.485Z,1.82
2023-02-15T05:12:04.198Z,1.76
2023-02-15T05:17:06.286Z,1.71
2023-02-15T05:22:07.781Z,1.74
2023-02-15T05:27:30.583Z,1.76
2023-02-15T05:32:32.200Z,1.72
2023-02-15T05:37:33.911Z,1.68
2023-02-15T05:42:35.457Z,1.72
2023-02-15T05:47:37.011Z,1.75
2023-02-15T05:52:38.643Z,1.81
2023-02-15T05:57:40.220Z,1.89
2023-02-15T06:02:42.039Z,1.92
2023-02-15T06:07:45.206Z,1.87
2023-02-15T06:12:46.738Z,1.93
2023-02-15T06:17:48.272Z,2.00
2023-02-15T06:22:49.762Z,2.08
2023-02-15T06:27:51.624Z,2.08
2023-02-15T06:32:53.112Z,2.14
2023-02-15T06:37:54.660Z,2.10
2023-02-15T06:42:56.156Z,2.04
2023-02-15T06:47:57.674Z,2.09
2023-02-15T06:52:59.879Z,2.11
2023-02-15T06:58:01.468Z,2.12
2023-02-15T07:03:03.610Z,2.11
2023-02-15T07:08:05.173Z,2.13
2023-02-15T07:13:06.689Z,2.14
2023-02-15T07:18:08.268Z,2.14
2023-02-15T07:23:09.798Z,2.13
2023-02-15T07:28:11.333Z,2.08
2023-02-15T07:33:24.831Z,2.13
2023-02-15T07:38:28.587Z,2.23
2023-02-15T07:43:30.636Z,2.37
2023-02-15T07:48:32.490Z,2.45
2023-02-15T07:53:35.169Z,2.47
2023-02-15T07:58:52.153Z,2.53
2023-02-15T08:03:55.422Z,2.71
2023-02-15T08:08:57.259Z,2.83
2023-02-15T08:14:03.306Z,2.94
2023-02-15T08:19:08.065Z,3.05
2023-02-15T08:24:11.631Z,3.21
2023-02-15T08:29:14.463Z,3.36
2023-02-15T08:34:19.210Z,3.48
2023-02-15T08:39:21.072Z,3.61
2023-02-15T08:44:23.386Z,3.81
2023-02-15T08:49:25.042Z,3.88
2023-02-15T08:54:27.334Z,4.04
2023-02-15T08:59:28.856Z,4.18
2023-02-15T09:04:30.363Z,4.28
2023-02-15T09:09:32.967Z,4.44
2023-02-15T09:14:34.723Z,4.59
2023-02-15T09:19:36.397Z,4.70
2023-02-15T09:24:37.936Z,4.79
2023-02-15T09:29:39.574Z,4.78
2023-02-15T09:34:41.150Z,4.84
2023-02-15T09:39:44.584Z,4.94
2023-02-15T09:45:18.745Z,4.88
2023-02-15T09:50:48.097Z,4.99
2023-02-15T09:56:02.915Z,5.00
2023-02-15T10:01:09.964Z,5.12
2023-02-15T10:06:28.329Z,5.37
2023-02-15T10:11:50.996Z,5.47
2023-02-15T10:17:19.724Z,5.54
2023-02-15T10:22:40.151Z,5.62
2023-02-15T10:27:51.193Z,5.78
2023-02-15T10:33:03.350Z,5.97
2023-02-15T10:38:24.748Z,6.15
2023-02-15T10:43:51.073Z,6.23
2023-02-15T10:48:55.962Z,6.34
2023-02-15T10:54:03.227Z,6.61
2023-02-15T10:59:11.867Z,6.57
2023-02-15T11:04:31.533Z,6.46
2023-02-15T11:09:45.687Z,6.68
2023-02-15T11:15:04.618Z,6.68
2023-02-15T11:20:19.584Z,6.75
2023-02-15T11:25:26.256Z,6.67
2023-02-15T11:30:39.199Z,6.59
2023-02-15T11:35:52.877Z,6.46
2023-02-15T11:40:58.373Z,6.38
2023-02-15T11:45:59.946Z,6.32
2023-02-15T11:51:04.280Z,6.44
2023-02-15T11:56:13.348Z,6.60
2023-02-15T12:01:36.477Z,6.70
2023-02-15T12:06:46.500Z,6.66
2023-02-15T12:11:48.040Z,6.70
2023-02-15T12:16:52.383Z,6.97
2023-02-15T12:21:54.356Z,7.08
2023-02-15T12:27:15.138Z,7.10
2023-02-15T12:32:28.442Z,7.17
2023-02-15T12:37:33.041Z,7.29
2023-02-15T12:42:45.997Z,7.38
2023-02-15T12:48:10.576Z,7.50
2023-02-15T12:53:24.560Z,7.61
2023-02-15T12:58:31.621Z,7.69
2023-02-15T13:03:33.880Z,7.85
2023-02-15T13:08:49.665Z,7.99
2023-02-15T13:13:57.053Z,8.03
2023-02-15T13:19:03.213Z,8.13
2023-02-15T13:24:34.469Z,8.33
2023-02-15T13:29:39.424Z,8.29
2023-02-15T13:34:41.112Z,8.19
2023-02-15T13:39:48.900Z,8.25
2023-02-15T13:44:53.664Z,8.25
2023-02-15T13:50:20.872Z,8.23
2023-02-15T13:55:25.254Z,8.22
2023-02-15T14:00:33.161Z,8.20
2023-02-15T14:06:12.002Z,8.30
2023-02-15T14:11:37.988Z,8.41
2023-02-15T14:17:06.612Z,8.41
2023-02-15T14:22:32.905Z,8.28
2023-02-15T14:27:52.952Z,8.34
2023-02-15T14:33:06.833Z,8.50
2023-02-15T14:38:31.419Z,8.60
2023-02-15T14:43:43.194Z,8.46
2023-02-15T14:48:50.742Z,8.45
2023-02-15T14:53:52.299Z,8.57
2023-02-15T14:58:53.717Z,8.65
2023-02-15T15:04:00.429Z,8.62
2023-02-15T15:09:25.779Z,8.52
2023-02-15T15:14:33.305Z,8.41
2023-02-15T15:19:53.691Z,8.31
2023-02-15T15:24:57.535Z,8.21
2023-02-15T15:29:59.111Z,8.02
2023-02-15T15:35:38.682Z,7.94
2023-02-15T15:40:52.465Z,7.80
2023-02-15T15:46:36.101Z,7.72
2023-02-15T15:51:42.185Z,7.61
2023-02-15T15:56:47.850Z,7.44
2023-02-15T16:01:49.808Z,7.43
2023-02-15T16:06:51.715Z,7.47
2023-02-15T16:11:56.401Z,7.46
2023-02-15T16:17:01.330Z,7.44
2023-02-15T16:22:04.452Z,7.43
2023-02-15T16:27:33.039Z,7.44
2023-02-15T16:32:37.236Z,7.35
2023-02-15T16:37:38.844Z,7.34
2023-02-15T16:42:40.450Z,7.27
2023-02-15T16:47:45.928Z,7.23
2023-02-15T16:52:47.680Z,7.17
2023-02-15T16:57:50.156Z,7.09
2023-02-15T17:03:15.010Z,7.09
2023-02-15T17:08:34.359Z,7.06
2023-02-15T17:13:35.867Z,7.13
2023-02-15T17:18:46.134Z,7.11
2023-02-15T17:23:50.783Z,7.05
2023-02-15T17:28:57.699Z,6.96
2023-02-15T17:34:00.720Z,6.98
2023-02-15T17:39:07.082Z,6.98
2023-02-15T17:44:12.098Z,7.00
2023-02-15T17:49:27.730Z,6.88
2023-02-15T17:54:47.799Z,6.78
2023-02-15T18:00:07.529Z,6.72
2023-02-15T18:05:34.492Z,6.70
2023-02-15T18:10:54.810Z,6.66
2023-02-15T18:15:56.649Z,6.53
2023-02-15T18:20:58.153Z,6.51
2023-02-15T18:25:59.638Z,6.48
2023-02-15T18:31:01.576Z,6.52
2023-02-15T18:36:06.621Z,6.48
2023-02-15T18:41:16.720Z,6.46
2023-02-15T18:46:18.383Z,6.40
2023-02-15T18:51:22.649Z,6.37
2023-02-15T18:56:24.218Z,6.37
2023-02-15T19:01:25.791Z,6.28
2023-02-15T19:06:29.164Z,6.24
2023-02-15T19:11:30.753Z,6.25
2023-02-15T19:16:34.898Z,6.34
2023-02-15T19:21:36.481Z,6.34
2023-02-15T19:26:45.569Z,6.30
2023-02-15T19:31:47.604Z,6.26
2023-02-15T19:36:52.416Z,6.29
2023-02-15T19:41:54.199Z,6.24
2023-02-15T19:46:55.735Z,6.20
2023-02-15T19:51:58.584Z,6.06
2023-02-15T19:57:00.232Z,5.98
2023-02-15T20:02:01.727Z,5.92
2023-02-15T20:07:05.361Z,5.94
2023-02-15T20:12:36.282Z,5.93
2023-02-15T20:17:37.784Z,5.84
2023-02-15T20:22:41.844Z,5.76
2023-02-15T20:27:43.987Z,5.63
2023-02-15T20:32:45.789Z,5.58
2023-02-15T20:37:52.203Z,5.52
2023-02-15T20:42:53.844Z,5.48
2023-02-15T20:47:55.918Z,5.50
2023-02-15T20:52:59.358Z,5.52
2023-02-15T20:58:00.938Z,5.59
2023-02-15T21:03:02.498Z,5.58
2023-02-15T21:08:14.137Z,5.48
2023-02-15T21:13:27.521Z,5.52
2023-02-15T21:18:42.479Z,5.57
2023-02-15T21:23:44.520Z,5.52
2023-02-15T21:28:47.099Z,5.44
2023-02-15T21:33:48.855Z,5.34
2023-02-15T21:38:51.122Z,5.32
2023-02-15T21:44:11.492Z,5.27
2023-02-15T21:49:13.016Z,5.16
2023-02-15T21:54:16.774Z,5.10
2023-02-15T21:59:18.714Z,5.09
2023-02-15T22:04:29.570Z,5.01
2023-02-15T22:09:31.096Z,5.00
2023-02-15T22:14:38.637Z,4.98
2023-02-15T22:19:40.159Z,4.92
2023-02-15T22:24:41.929Z,4.88
2023-02-15T22:29:45.011Z,4.88
2023-02-15T22:34:46.876Z,4.84
2023-02-15T22:39:48.596Z,4.70
2023-02-15T22:44:51.103Z,4.78
2023-02-15T22:49:53.190Z,4.74
2023-02-15T22:54:54.669Z,4.73
2023-02-15T22:59:56.980Z,4.73
2023-02-15T23:04:58.483Z,4.69
2023-02-15T23:10:00.122Z,4.66
2023-02-15T23:15:01.603Z,4.64
2023-02-15T23:20:03.600Z,4.63
2023-02-15T23:25:09.744Z,4.59
2023-02-15T23:30:19.328Z,4.57
2023-02-15T23:35:21.043Z,4.53
2023-02-15T23:40:41.422Z,4.53
2023-02-15T23:45:43.022Z,4.53
2023-02-15T23:50:44.632Z,4.51
2023-02-15T23:55:46.242Z,4.50
